Time;durP1;ratioP1;P1;durP2;ratioP2;P2;SDS_P1;SDS_P2;PMS_P1;PMS_P2;Temp;Humidity;BMP_temperature;BMP_pressure;BME280_temperature;BME280_humidity;BME280_pressure;Samples;Min_cycle;Max_cycle;Signal;HPM_P1;HPM_P2
2021/05/28 00:00:26;;;;;;;20.60;12.27;;;;;;;;;;2054253;28;20050;-79
2021/05/28 00:01:28;;;;;;;21.23;11.98;;;;;;;;;;2063476;28;20039;-80
2021/05/28 00:02:29;;;;;;;19.23;12.10;;;;;;;;;;2062459;28;20034;-80
2021/05/28 00:03:31;;;;;;;19.92;12.73;;;;;;;;;;2062884;28;20539;-82
2021/05/28 00:04:33;;;;;;;18.63;11.93;;;;;;;;;;2062047;28;20144;-81
2021/05/28 00:05:34;;;;;;;20.75;12.18;;;;;;;;;;2062993;28;20050;-81
2021/05/28 00:06:36;;;;;;;20.17;12.35;;;;;;;;;;2063770;28;20042;-81
2021/05/28 00:07:37;;;;;;;20.90;12.10;;;;;;;;;;2063700;28;20054;-81
2021/05/28 00:08:40;;;;;;;23.65;12.38;;;;;;;;;;2063233;28;20125;-81
2021/05/28 00:09:41;;;;;;;19.80;12.50;;;;;;;;;;2063914;28;20050;-80
2021/05/28 00:10:43;;;;;;;17.23;11.35;;;;;;;;;;2063514;28;20101;-81
2021/05/28 00:11:45;;;;;;;18.20;12.23;;;;;;;;;;2071553;28;20042;-81
2021/05/28 00:12:47;;;;;;;20.40;11.73;;;;;;;;;;2071723;28;20038;-80
2021/05/28 00:13:49;;;;;;;19.55;11.98;;;;;;;;;;2071848;28;20053;-81
2021/05/28 00:14:51;;;;;;;19.23;12.43;;;;;;;;;;2072158;28;20034;-81
2021/05/28 00:15:52;;;;;;;20.67;11.90;;;;;;;;;;2073019;28;20049;-81
2021/05/28 00:16:54;;;;;;;18.65;11.05;;;;;;;;;;2071240;28;20042;-80
2021/05/28 00:17:56;;;;;;;21.20;12.80;;;;;;;;;;2058914;28;20039;-80
2021/05/28 00:18:57;;;;;;;16.48;11.10;;;;;;;;;;2063310;28;20447;-81
2021/05/28 00:19:59;;;;;;;20.30;11.70;;;;;;;;;;2063943;28;20038;-80
2021/05/28 00:21:00;;;;;;;17.85;11.55;;;;;;;;;;2063938;28;20042;-82
2021/05/28 00:22:02;;;;;;;15.75;11.27;;;;;;;;;;2063717;28;20034;-82
2021/05/28 00:23:04;;;;;;;20.38;12.07;;;;;;;;;;2065176;28;20042;-81
2021/05/28 00:24:06;;;;;;;18.23;11.43;;;;;;;;;;2071650;28;20041;-80
2021/05/28 00:25:08;;;;;;;18.60;11.55;;;;;;;;;;2071653;28;20049;-80
2021/05/28 00:26:10;;;;;;;18.63;11.70;;;;;;;;;;2064142;28;20039;-80
2021/05/28 00:27:12;;;;;;;17.13;11.05;;;;;;;;;;2063353;28;20035;-80
2021/05/28 00:28:13;;;;;;;17.65;11.75;;;;;;;;;;2063604;28;20671;-81
2021/05/28 00:29:15;;;;;;;16.92;10.80;;;;;;;;;;2063166;28;20057;-81
2021/05/28 00:30:17;;;;;;;19.38;12.80;;;;;;;;;;2063197;28;20045;-80
2021/05/28 00:31:19;;;;;;;21.15;12.60;;;;;;;;;;2064666;28;20544;-82
2021/05/28 00:32:21;;;;;;;17.95;11.15;;;;;;;;;;2064838;28;20050;-80
2021/05/28 00:33:22;;;;;;;18.13;11.93;;;;;;;;;;2072696;28;20041;-81
2021/05/28 00:34:24;;;;;;;19.85;12.38;;;;;;;;;;2072568;28;20042;-81
2021/05/28 00:35:26;;;;;;;23.05;13.15;;;;;;;;;;2061914;28;20092;-81
2021/05/28 00:36:28;;;;;;;18.98;12.45;;;;;;;;;;2063358;28;20062;-80
2021/05/28 00:37:29;;;;;;;19.42;12.32;;;;;;;;;;2071476;28;20458;-81
2021/05/28 00:38:31;;;;;;;19.35;12.35;;;;;;;;;;2070485;28;20049;-80
2021/05/28 00:39:32;;;;;;;18.80;11.48;;;;;;;;;;2071401;28;20053;-80
2021/05/28 00:40:34;;;;;;;22.08;11.75;;;;;;;;;;2055047;28;20516;-81
2021/05/28 00:41:36;;;;;;;20.20;12.88;;;;;;;;;;2055622;28;20054;-80
2021/05/28 00:42:37;;;;;;;19.08;11.30;;;;;;;;;;2062934;28;20046;-80
2021/05/28 00:43:39;;;;;;;23.45;12.05;;;;;;;;;;2063203;28;20050;-80
2021/05/28 00:44:42;;;;;;;18.17;10.27;;;;;;;;;;2063910;28;20568;-81
2021/05/28 00:45:43;;;;;;;18.45;12.23;;;;;;;;;;2057668;28;20038;-80
2021/05/28 00:46:45;;;;;;;20.35;11.90;;;;;;;;;;2055315;28;20527;-81
2021/05/28 00:47:46;;;;;;;19.50;12.35;;;;;;;;;;2070362;28;20593;-81
2021/05/28 00:48:51;;;;;;;17.48;11.73;;;;;;;;;;2063107;28;20038;-80
2021/05/28 00:49:53;;;;;;;19.30;11.43;;;;;;;;;;2062939;28;20041;-80
2021/05/28 00:50:55;;;;;;;18.92;12.00;;;;;;;;;;2071314;28;20049;-79
2021/05/28 00:51:56;;;;;;;17.33;11.52;;;;;;;;;;2063096;28;20045;-79
2021/05/28 00:52:59;;;;;;;18.58;11.65;;;;;;;;;;2062668;28;20042;-80
2021/05/28 00:54:01;;;;;;;18.48;11.68;;;;;;;;;;2063770;28;20096;-80
2021/05/28 00:55:04;;;;;;;20.42;12.70;;;;;;;;;;2071008;28;20581;-80
2021/05/28 00:56:06;;;;;;;23.67;12.30;;;;;;;;;;2071285;28;20037;-79
2021/05/28 00:57:08;;;;;;;18.13;11.95;;;;;;;;;;2071588;28;20041;-79
2021/05/28 00:58:10;;;;;;;20.50;12.15;;;;;;;;;;2070846;28;20042;-79
2021/05/28 00:59:12;;;;;;;20.05;12.57;;;;;;;;;;2063452;28;20503;-80
2021/05/28 01:00:15;;;;;;;20.52;13.13;;;;;;;;;;2063319;28;20050;-81
2021/05/28 01:01:17;;;;;;;20.23;12.35;;;;;;;;;;2063668;28;20042;-81
2021/05/28 01:02:18;;;;;;;18.83;12.30;;;;;;;;;;2063986;28;20050;-81
2021/05/28 01:03:20;;;;;;;20.35;12.50;;;;;;;;;;2063820;28;20045;-80
2021/05/28 01:04:22;;;;;;;21.40;12.18;;;;;;;;;;2063927;28;20038;-79
2021/05/28 01:05:23;;;;;;;20.70;12.48;;;;;;;;;;2063692;28;20051;-81
2021/05/28 01:06:26;;;;;;;18.17;12.27;;;;;;;;;;2064464;28;20600;-80
2021/05/28 01:07:28;;;;;;;16.20;10.93;;;;;;;;;;2064267;28;20053;-81
2021/05/28 01:08:30;;;;;;;18.92;11.88;;;;;;;;;;2071567;28;20066;-80
2021/05/28 01:09:32;;;;;;;16.98;11.23;;;;;;;;;;2070753;28;20073;-80
2021/05/28 01:10:33;;;;;;;20.13;11.63;;;;;;;;;;2063487;28;20059;-80
2021/05/28 01:11:37;;;;;;;16.00;10.15;;;;;;;;;;2077635;28;20049;-79
2021/05/28 01:12:39;;;;;;;16.83;10.85;;;;;;;;;;2071189;28;20053;-79
2021/05/28 01:13:41;;;;;;;13.98;9.75;;;;;;;;;;2071257;28;20049;-82
2021/05/28 01:14:43;;;;;;;12.82;8.68;;;;;;;;;;2071898;28;20703;-82
2021/05/28 01:15:45;;;;;;;20.15;10.82;;;;;;;;;;2071928;28;20045;-83
2021/05/28 01:16:47;;;;;;;17.08;10.82;;;;;;;;;;2060340;28;20042;-81
2021/05/28 01:17:48;;;;;;;19.90;11.32;;;;;;;;;;2055223;28;20038;-81
2021/05/28 01:18:50;;;;;;;17.20;10.23;;;;;;;;;;2062755;28;20046;-81
2021/05/28 01:19:51;;;;;;;15.60;10.32;;;;;;;;;;2061516;28;20069;-81
2021/05/28 01:20:53;;;;;;;15.38;10.25;;;;;;;;;;2062305;28;20042;-81
2021/05/28 01:21:56;;;;;;;19.40;11.00;;;;;;;;;;2063326;28;20049;-81
2021/05/28 01:22:59;;;;;;;20.45;11.48;;;;;;;;;;2063063;28;20049;-80
2021/05/28 01:24:01;;;;;;;15.85;9.73;;;;;;;;;;2078324;28;20042;-80
2021/05/28 01:25:05;;;;;;;18.10;10.88;;;;;;;;;;2070354;28;20038;-79
2021/05/28 01:26:07;;;;;;;15.70;9.30;;;;;;;;;;2070399;28;20050;-80
2021/05/28 01:27:10;;;;;;;15.40;10.25;;;;;;;;;;2079159;28;20042;-80
2021/05/28 01:28:12;;;;;;;18.13;11.57;;;;;;;;;;2078057;28;20394;-81
2021/05/28 01:29:15;;;;;;;16.92;11.05;;;;;;;;;;2070354;28;20549;-80
2021/05/28 01:30:17;;;;;;;18.67;11.60;;;;;;;;;;2070989;28;20157;-81
2021/05/28 01:31:18;;;;;;;16.85;9.60;;;;;;;;;;2076323;28;20046;-79
2021/05/28 01:32:20;;;;;;;12.30;8.82;;;;;;;;;;2061781;28;20053;-79
2021/05/28 01:33:22;;;;;;;15.38;10.13;;;;;;;;;;2062810;28;20113;-80
2021/05/28 01:34:24;;;;;;;15.13;9.60;;;;;;;;;;2063207;28;20049;-79
2021/05/28 01:35:25;;;;;;;14.82;9.27;;;;;;;;;;2062225;28;20052;-81
2021/05/28 01:36:27;;;;;;;16.88;10.00;;;;;;;;;;2065885;28;20046;-81
2021/05/28 01:37:29;;;;;;;14.27;9.90;;;;;;;;;;2070999;28;20092;-81
2021/05/28 01:38:31;;;;;;;15.25;9.88;;;;;;;;;;2071189;28;20116;-80
2021/05/28 01:39:33;;;;;;;13.73;8.52;;;;;;;;;;2070833;28;20515;-80
2021/05/28 01:40:35;;;;;;;13.00;8.70;;;;;;;;;;2067613;28;20042;-80
2021/05/28 01:41:36;;;;;;;13.30;9.10;;;;;;;;;;2072628;28;20065;-80
2021/05/28 01:42:38;;;;;;;12.10;8.40;;;;;;;;;;2064728;28;20471;-81
2021/05/28 01:43:40;;;;;;;11.88;8.18;;;;;;;;;;2064833;28;20054;-82
2021/05/28 01:44:43;;;;;;;15.00;7.43;;;;;;;;;;2072883;28;20045;-80
2021/05/28 01:45:45;;;;;;;10.15;7.55;;;;;;;;;;2072608;28;20046;-80
2021/05/28 01:46:48;;;;;;;9.52;7.32;;;;;;;;;;2072353;28;20049;-81
2021/05/28 01:47:51;;;;;;;9.55;7.32;;;;;;;;;;2062371;28;20050;-80
2021/05/28 01:48:52;;;;;;;9.95;7.18;;;;;;;;;;2048397;28;20124;-80
2021/05/28 01:49:54;;;;;;;8.93;6.72;;;;;;;;;;2064082;28;20035;-79
2021/05/28 01:50:56;;;;;;;10.68;7.20;;;;;;;;;;2064488;28;20106;-80
2021/05/28 01:51:57;;;;;;;9.48;6.82;;;;;;;;;;2064965;28;20038;-80
2021/05/28 01:52:59;;;;;;;9.30;6.90;;;;;;;;;;2056718;28;20066;-81
2021/05/28 01:54:01;;;;;;;12.50;7.32;;;;;;;;;;2064749;28;20504;-81
2021/05/28 01:55:05;;;;;;;8.98;7.43;;;;;;;;;;2064202;28;20046;-81
2021/05/28 01:56:07;;;;;;;11.05;7.20;;;;;;;;;;2064213;28;20607;-80
2021/05/28 01:57:10;;;;;;;12.02;7.38;;;;;;;;;;2064793;28;20038;-80
2021/05/28 01:58:13;;;;;;;11.05;7.28;;;;;;;;;;2072763;28;20435;-81
2021/05/28 01:59:24;;;;;;;14.48;7.45;;;;;;;;;;2072386;28;20045;-79
2021/05/28 02:00:25;;;;;;;11.32;7.07;;;;;;;;;;2064442;28;20039;-79
2021/05/28 02:01:30;;;;;;;10.50;7.63;;;;;;;;;;2064123;28;20527;-79
2021/05/28 02:02:31;;;;;;;10.85;7.22;;;;;;;;;;2064560;28;20069;-81
2021/05/28 02:03:33;;;;;;;10.65;6.97;;;;;;;;;;2072157;28;20050;-79
2021/05/28 02:04:37;;;;;;;9.15;6.40;;;;;;;;;;2072570;28;20153;-80
2021/05/28 02:05:39;;;;;;;9.68;7.18;;;;;;;;;;2064291;28;20045;-79
2021/05/28 02:06:40;;;;;;;11.32;7.38;;;;;;;;;;2064311;28;20042;-79
2021/05/28 02:07:42;;;;;;;14.00;8.05;;;;;;;;;;2064220;28;20431;-81
2021/05/28 02:08:43;;;;;;;7.35;5.22;;;;;;;;;;2071110;28;20045;-80
2021/05/28 02:09:45;;;;;;;8.88;6.53;;;;;;;;;;2080212;28;20050;-81
2021/05/28 02:10:47;;;;;;;11.73;7.75;;;;;;;;;;2081086;28;20040;-81
2021/05/28 02:11:49;;;;;;;9.10;7.13;;;;;;;;;;2065380;28;20046;-80
2021/05/28 02:12:52;;;;;;;11.00;7.40;;;;;;;;;;2063815;28;20512;-80
2021/05/28 02:13:54;;;;;;;11.50;7.70;;;;;;;;;;2065015;28;20046;-81
2021/05/28 02:14:57;;;;;;;12.30;8.07;;;;;;;;;;2072806;28;20041;-81
2021/05/28 02:15:59;;;;;;;12.35;7.90;;;;;;;;;;2072272;28;20061;-80
2021/05/28 02:17:00;;;;;;;13.85;8.18;;;;;;;;;;2072447;28;20045;-80
2021/05/28 02:18:02;;;;;;;10.70;8.10;;;;;;;;;;2072428;28;20046;-80
2021/05/28 02:19:06;;;;;;;9.73;7.53;;;;;;;;;;2064385;28;20045;-81
2021/05/28 02:20:08;;;;;;;12.25;7.30;;;;;;;;;;2063887;28;20038;-81
2021/05/28 02:21:10;;;;;;;10.10;6.90;;;;;;;;;;2072917;28;20045;-80
2021/05/28 02:22:12;;;;;;;10.02;7.10;;;;;;;;;;2072584;28;20041;-80
2021/05/28 02:23:14;;;;;;;10.70;7.07;;;;;;;;;;2072353;28;20049;-80
2021/05/28 02:24:17;;;;;;;10.45;6.63;;;;;;;;;;2065091;28;20042;-80
2021/05/28 02:25:19;;;;;;;9.88;6.88;;;;;;;;;;2064402;28;20042;-80
2021/05/28 02:26:20;;;;;;;10.45;7.53;;;;;;;;;;2064148;28;20045;-81
2021/05/28 02:27:22;;;;;;;9.25;6.88;;;;;;;;;;2072521;28;20046;-80
2021/05/28 02:28:25;;;;;;;12.07;7.70;;;;;;;;;;2071917;28;20038;-80
2021/05/28 02:29:27;;;;;;;10.63;7.20;;;;;;;;;;2065432;28;20049;-80
2021/05/28 02:30:28;;;;;;;9.45;7.00;;;;;;;;;;2063887;28;20505;-80
2021/05/28 02:31:30;;;;;;;11.93;7.90;;;;;;;;;;2056669;28;20038;-80
2021/05/28 02:32:32;;;;;;;16.42;8.77;;;;;;;;;;2064108;28;20061;-79
2021/05/28 02:33:36;;;;;;;19.40;9.13;;;;;;;;;;2064445;28;20066;-79
2021/05/28 02:34:38;;;;;;;20.65;9.20;;;;;;;;;;2064108;28;20439;-79
2021/05/28 02:35:40;;;;;;;20.10;8.90;;;;;;;;;;2056234;28;20051;-80
2021/05/28 02:36:42;;;;;;;23.33;9.63;;;;;;;;;;2064097;28;20546;-80
2021/05/28 02:37:43;;;;;;;20.15;9.07;;;;;;;;;;2064878;28;20046;-80
2021/05/28 02:38:45;;;;;;;16.35;8.68;;;;;;;;;;2070418;28;20053;-81
2021/05/28 02:39:46;;;;;;;15.13;8.65;;;;;;;;;;2071803;28;20038;-80
2021/05/28 02:40:48;;;;;;;14.70;7.50;;;;;;;;;;2069600;28;20070;-80
2021/05/28 02:41:49;;;;;;;12.07;7.15;;;;;;;;;;2072860;28;20045;-80
2021/05/28 02:42:51;;;;;;;12.10;7.53;;;;;;;;;;2075793;28;20045;-80
2021/05/28 02:43:53;;;;;;;9.40;6.53;;;;;;;;;;2072089;28;20045;-81
2021/05/28 02:44:54;;;;;;;10.73;6.72;;;;;;;;;;2072203;28;20056;-79
2021/05/28 02:45:56;;;;;;;12.57;7.53;;;;;;;;;;2073005;28;20037;-80
2021/05/28 02:46:58;;;;;;;10.98;7.15;;;;;;;;;;2072533;28;20045;-80
2021/05/28 02:48:00;;;;;;;12.48;7.65;;;;;;;;;;2079885;28;20038;-79
2021/05/28 02:49:02;;;;;;;12.32;7.18;;;;;;;;;;2071709;28;21000;-80
2021/05/28 02:50:04;;;;;;;8.77;6.38;;;;;;;;;;2067142;28;20042;-82
2021/05/28 02:51:06;;;;;;;8.38;5.85;;;;;;;;;;2064620;28;20470;-79
2021/05/28 02:52:07;;;;;;;9.75;6.68;;;;;;;;;;2064869;28;20042;-80
2021/05/28 02:53:10;;;;;;;9.52;7.05;;;;;;;;;;2066225;28;20038;-80
2021/05/28 02:54:12;;;;;;;8.70;6.30;;;;;;;;;;2080415;28;20052;-81
2021/05/28 02:55:13;;;;;;;10.43;6.57;;;;;;;;;;2080035;28;20458;-80
2021/05/28 02:56:15;;;;;;;9.43;6.47;;;;;;;;;;2072786;28;20041;-80
2021/05/28 02:57:17;;;;;;;12.43;7.95;;;;;;;;;;2080252;28;20038;-81
2021/05/28 02:58:18;;;;;;;14.88;7.70;;;;;;;;;;2072190;28;20042;-80
2021/05/28 02:59:20;;;;;;;13.38;7.28;;;;;;;;;;2064164;28;20058;-80
2021/05/28 03:00:22;;;;;;;14.48;7.65;;;;;;;;;;2071453;28;20046;-79
2021/05/28 03:01:24;;;;;;;11.02;6.03;;;;;;;;;;2077535;28;20061;-81
2021/05/28 03:02:25;;;;;;;10.95;6.38;;;;;;;;;;2064782;28;20058;-80
2021/05/28 03:03:27;;;;;;;7.93;5.90;;;;;;;;;;2065128;28;20042;-80
2021/05/28 03:04:29;;;;;;;9.43;5.72;;;;;;;;;;2064515;28;20038;-81
2021/05/28 03:05:31;;;;;;;9.18;6.10;;;;;;;;;;2055786;28;20038;-81
2021/05/28 03:06:33;;;;;;;8.75;6.25;;;;;;;;;;2055999;28;20072;-80
2021/05/28 03:07:34;;;;;;;10.35;5.80;;;;;;;;;;2064257;28;20410;-80
2021/05/28 03:08:36;;;;;;;8.80;6.32;;;;;;;;;;2069155;28;20050;-81
2021/05/28 03:09:39;;;;;;;7.50;5.95;;;;;;;;;;2071778;28;20053;-81
2021/05/28 03:10:46;;;;;;;8.27;5.97;;;;;;;;;;2072860;28;20498;-80
2021/05/28 03:11:48;;;;;;;9.15;5.70;;;;;;;;;;2080092;28;20399;-80
2021/05/28 03:12:50;;;;;;;9.07;5.90;;;;;;;;;;2071923;28;20038;-80
2021/05/28 03:13:51;;;;;;;8.45;5.90;;;;;;;;;;2056167;28;20062;-81
2021/05/28 03:14:53;;;;;;;7.78;5.85;;;;;;;;;;2064412;28;20578;-81
2021/05/28 03:15:54;;;;;;;7.78;5.50;;;;;;;;;;2079837;28;20053;-81
2021/05/28 03:16:58;;;;;;;8.90;6.15;;;;;;;;;;2080128;28;20053;-81
2021/05/28 03:18:00;;;;;;;7.90;5.60;;;;;;;;;;2071454;28;20510;-81
2021/05/28 03:19:05;;;;;;;7.57;6.07;;;;;;;;;;2072412;28;20124;-80
2021/05/28 03:20:16;;;;;;;9.05;6.45;;;;;;;;;;2070896;28;20038;-81
2021/05/28 03:21:38;;;;;;;8.75;5.38;;;;;;;;;;2064003;28;20542;-80
2021/05/28 03:22:40;;;;;;;11.00;6.53;;;;;;;;;;2058131;28;20519;-82
2021/05/28 03:23:43;;;;;;;10.07;6.40;;;;;;;;;;2054086;28;20116;-80
2021/05/28 03:24:44;;;;;;;8.45;6.63;;;;;;;;;;2055736;28;20069;-79
2021/05/28 03:25:46;;;;;;;8.48;6.47;;;;;;;;;;2063107;28;20038;-81
2021/05/28 03:26:47;;;;;;;12.40;7.22;;;;;;;;;;2063285;28;20046;-81
2021/05/28 03:27:49;;;;;;;9.68;7.18;;;;;;;;;;2071545;28;20041;-80
2021/05/28 03:28:53;;;;;;;9.93;6.93;;;;;;;;;;2064448;28;20049;-80
2021/05/28 03:29:54;;;;;;;11.35;7.45;;;;;;;;;;2071132;28;20117;-80
2021/05/28 03:30:58;;;;;;;8.40;5.90;;;;;;;;;;2071326;28;20068;-81
2021/05/28 03:31:59;;;;;;;7.13;5.57;;;;;;;;;;2063320;28;20034;-80
2021/05/28 03:33:01;;;;;;;9.68;6.80;;;;;;;;;;2063562;28;20095;-81
2021/05/28 03:34:03;;;;;;;9.48;6.63;;;;;;;;;;2055807;28;20039;-81
2021/05/28 03:35:06;;;;;;;9.98;7.18;;;;;;;;;;2063354;28;20049;-80
2021/05/28 03:36:08;;;;;;;9.77;6.65;;;;;;;;;;2063997;28;20527;-81
2021/05/28 03:37:10;;;;;;;9.25;6.70;;;;;;;;;;2071384;28;20042;-81
2021/05/28 03:38:11;;;;;;;8.95;6.25;;;;;;;;;;2060365;28;20046;-81
2021/05/28 03:39:13;;;;;;;10.13;6.38;;;;;;;;;;2064046;28;20046;-79
2021/05/28 03:40:15;;;;;;;9.02;6.38;;;;;;;;;;2063592;28;20046;-81
2021/05/28 03:41:17;;;;;;;11.50;6.75;;;;;;;;;;2063529;28;20054;-80
2021/05/28 03:42:19;;;;;;;10.93;7.45;;;;;;;;;;2064492;28;20046;-81
2021/05/28 03:43:21;;;;;;;10.00;6.47;;;;;;;;;;2064179;28;20046;-81
2021/05/28 03:44:22;;;;;;;9.35;6.25;;;;;;;;;;2063974;28;20070;-80
2021/05/28 03:45:24;;;;;;;10.77;7.00;;;;;;;;;;2071706;28;20053;-79
2021/05/28 03:46:26;;;;;;;10.68;6.40;;;;;;;;;;2055254;28;20073;-80
2021/05/28 03:47:27;;;;;;;11.20;7.28;;;;;;;;;;2063577;28;20054;-79
2021/05/28 03:48:29;;;;;;;9.45;6.85;;;;;;;;;;2070646;28;20049;-79
2021/05/28 03:49:31;;;;;;;10.27;7.10;;;;;;;;;;2070847;28;20905;-80
2021/05/28 03:50:32;;;;;;;13.60;8.68;;;;;;;;;;2071501;28;20050;-79
2021/05/28 03:51:34;;;;;;;14.35;7.45;;;;;;;;;;2063614;28;20058;-79
2021/05/28 03:52:45;;;;;;;10.10;7.30;;;;;;;;;;2046741;28;20042;-79
2021/05/28 03:53:48;;;;;;;12.27;7.53;;;;;;;;;;2057669;28;20043;-81
2021/05/28 03:54:50;;;;;;;11.60;7.55;;;;;;;;;;2072975;28;20034;-79
2021/05/28 03:55:51;;;;;;;8.48;6.03;;;;;;;;;;2080919;28;20052;-80
2021/05/28 03:56:53;;;;;;;10.90;7.55;;;;;;;;;;2074604;28;20049;-79
2021/05/28 03:57:54;;;;;;;10.43;6.22;;;;;;;;;;2070535;28;20045;-80
2021/05/28 03:58:56;;;;;;;10.82;6.95;;;;;;;;;;2072101;28;20046;-80
2021/05/28 03:59:58;;;;;;;9.57;6.30;;;;;;;;;;2075061;28;20060;-80
2021/05/28 04:00:59;;;;;;;8.18;6.22;;;;;;;;;;2071132;28;20052;-79
2021/05/28 04:02:02;;;;;;;11.07;6.93;;;;;;;;;;2063172;28;20118;-80
2021/05/28 04:03:04;;;;;;;10.18;6.88;;;;;;;;;;2071696;28;20061;-80
2021/05/28 04:04:05;;;;;;;10.48;6.90;;;;;;;;;;2064261;28;20077;-79
2021/05/28 04:05:09;;;;;;;9.70;6.78;;;;;;;;;;2071175;28;20037;-80
2021/05/28 04:06:10;;;;;;;10.10;7.00;;;;;;;;;;2078692;28;20046;-79
2021/05/28 04:07:12;;;;;;;10.50;7.22;;;;;;;;;;2072073;28;20056;-80
2021/05/28 04:08:13;;;;;;;12.40;6.35;;;;;;;;;;2074401;28;20725;-80
2021/05/28 04:09:15;;;;;;;8.20;6.07;;;;;;;;;;2072468;28;20065;-80
2021/05/28 04:10:16;;;;;;;8.45;6.32;;;;;;;;;;2071898;28;20045;-80
2021/05/28 04:11:18;;;;;;;9.02;6.63;;;;;;;;;;2072600;28;20046;-80
2021/05/28 04:12:20;;;;;;;10.52;7.43;;;;;;;;;;2072547;28;20519;-80
2021/05/28 04:13:27;;;;;;;12.35;7.88;;;;;;;;;;2065430;28;20049;-80
2021/05/28 04:14:29;;;;;;;10.95;6.53;;;;;;;;;;2072400;28;20064;-80
2021/05/28 04:15:31;;;;;;;11.95;7.20;;;;;;;;;;2072262;28;20074;-80
2021/05/28 04:16:33;;;;;;;12.18;7.45;;;;;;;;;;2071711;28;20077;-80
2021/05/28 04:17:35;;;;;;;8.02;6.03;;;;;;;;;;2064879;28;20046;-80
2021/05/28 04:18:36;;;;;;;10.18;6.65;;;;;;;;;;2065257;28;20042;-80
2021/05/28 04:19:38;;;;;;;12.07;6.55;;;;;;;;;;2072227;28;20478;-80
2021/05/28 04:20:43;;;;;;;9.93;6.20;;;;;;;;;;2072576;28;20472;-80
2021/05/28 04:21:45;;;;;;;10.93;6.63;;;;;;;;;;2072665;28;20046;-80
2021/05/28 04:22:46;;;;;;;10.43;6.75;;;;;;;;;;2072538;28;20042;-79
2021/05/28 04:23:48;;;;;;;9.50;6.50;;;;;;;;;;2072663;28;20499;-79
2021/05/28 04:24:50;;;;;;;9.45;6.35;;;;;;;;;;2080178;28;20041;-79
2021/05/28 04:25:51;;;;;;;9.65;6.63;;;;;;;;;;2080686;28;20056;-80
2021/05/28 04:26:53;;;;;;;8.13;6.03;;;;;;;;;;2079849;28;20515;-79
2021/05/28 04:27:54;;;;;;;9.50;6.45;;;;;;;;;;2080794;28;20037;-80
2021/05/28 04:28:56;;;;;;;9.13;6.55;;;;;;;;;;2072242;28;20518;-80
2021/05/28 04:29:57;;;;;;;6.43;4.80;;;;;;;;;;2063831;28;20038;-81
2021/05/28 04:30:59;;;;;;;9.48;7.05;;;;;;;;;;2063754;28;20039;-81
2021/05/28 04:32:01;;;;;;;9.68;7.03;;;;;;;;;;2071741;28;20041;-80
2021/05/28 04:33:03;;;;;;;11.27;7.30;;;;;;;;;;2072145;28;20034;-80
2021/05/28 04:34:05;;;;;;;10.90;7.13;;;;;;;;;;2071936;28;20045;-80
2021/05/28 04:35:07;;;;;;;11.63;7.72;;;;;;;;;;2064280;28;20046;-80
2021/05/28 04:36:08;;;;;;;10.40;6.53;;;;;;;;;;2063896;28;20053;-79
2021/05/28 04:37:10;;;;;;;10.07;7.00;;;;;;;;;;2064281;28;20039;-80
2021/05/28 04:38:11;;;;;;;11.43;7.47;;;;;;;;;;2066050;28;20049;-79
2021/05/28 04:39:13;;;;;;;11.70;6.85;;;;;;;;;;2072538;28;20045;-79
2021/05/28 04:40:16;;;;;;;9.30;5.90;;;;;;;;;;2072817;28;20038;-79
2021/05/28 04:41:17;;;;;;;10.38;6.43;;;;;;;;;;2073309;28;20038;-79
2021/05/28 04:42:19;;;;;;;9.98;6.90;;;;;;;;;;2071916;28;20034;-80
2021/05/28 04:43:21;;;;;;;8.75;6.03;;;;;;;;;;2072019;28;20042;-80
2021/05/28 04:44:23;;;;;;;10.85;7.18;;;;;;;;;;2073031;28;20042;-80
2021/05/28 04:45:25;;;;;;;10.00;7.22;;;;;;;;;;2071251;28;20042;-79
2021/05/28 04:46:27;;;;;;;11.02;7.57;;;;;;;;;;2070108;28;20041;-79
2021/05/28 04:47:28;;;;;;;10.13;7.05;;;;;;;;;;2064058;28;20046;-79
2021/05/28 04:48:30;;;;;;;9.63;6.90;;;;;;;;;;2063474;28;20034;-79
2021/05/28 04:49:32;;;;;;;8.90;6.55;;;;;;;;;;2063125;28;20050;-78
2021/05/28 04:50:36;;;;;;;9.35;7.15;;;;;;;;;;2070931;28;20061;-79
2021/05/28 04:51:38;;;;;;;11.73;6.82;;;;;;;;;;2062536;28;20053;-79
2021/05/28 04:52:42;;;;;;;8.07;6.15;;;;;;;;;;2062757;28;20081;-79
2021/05/28 04:53:43;;;;;;;14.63;7.07;;;;;;;;;;2069786;28;20038;-80
2021/05/28 04:54:45;;;;;;;11.98;7.05;;;;;;;;;;2071687;28;20042;-80
2021/05/28 04:55:47;;;;;;;8.55;6.13;;;;;;;;;;2079152;28;20501;-79
2021/05/28 04:56:48;;;;;;;9.75;6.53;;;;;;;;;;2079162;28;20430;-79
2021/05/28 04:57:50;;;;;;;8.45;6.15;;;;;;;;;;2062968;28;20096;-79
2021/05/28 04:58:52;;;;;;;10.63;7.57;;;;;;;;;;2062587;28;20042;-80
2021/05/28 04:59:53;;;;;;;10.02;6.30;;;;;;;;;;2062130;28;20038;-80
2021/05/28 05:00:55;;;;;;;11.88;7.20;;;;;;;;;;2071016;28;20037;-80
2021/05/28 05:01:57;;;;;;;12.38;8.43;;;;;;;;;;2062769;28;20038;-79
2021/05/28 05:02:58;;;;;;;11.02;8.40;;;;;;;;;;2062330;28;20045;-79
2021/05/28 05:04:00;;;;;;;15.38;8.68;;;;;;;;;;2062740;28;20108;-80
2021/05/28 05:05:03;;;;;;;12.85;9.68;;;;;;;;;;2063293;28;20038;-80
2021/05/28 05:06:04;;;;;;;14.38;9.25;;;;;;;;;;2070921;28;20088;-79
2021/05/28 05:07:06;;;;;;;14.43;9.05;;;;;;;;;;2062830;28;20053;-81
2021/05/28 05:08:07;;;;;;;15.88;8.52;;;;;;;;;;2070945;28;20065;-79
2021/05/28 05:09:09;;;;;;;12.05;8.63;;;;;;;;;;2071152;28;20438;-79
2021/05/28 05:10:12;;;;;;;10.20;8.23;;;;;;;;;;2062540;28;20534;-79
2021/05/28 05:11:13;;;;;;;12.32;8.30;;;;;;;;;;2070676;28;20779;-80
2021/05/28 05:12:15;;;;;;;11.63;8.55;;;;;;;;;;2055308;28;20065;-79
2021/05/28 05:13:16;;;;;;;14.25;8.55;;;;;;;;;;2062746;28;20046;-80
2021/05/28 05:14:18;;;;;;;15.05;9.43;;;;;;;;;;2063032;28;20046;-80
2021/05/28 05:15:19;;;;;;;11.60;8.38;;;;;;;;;;2062659;28;20523;-80
2021/05/28 05:16:21;;;;;;;13.18;9.18;;;;;;;;;;2070164;28;20041;-80
2021/05/28 05:17:42;;;;;;;15.30;8.27;;;;;;;;;;2062267;28;20057;-80
2021/05/28 05:18:45;;;;;;;11.20;8.57;;;;;;;;;;2065501;28;20450;-80
2021/05/28 05:19:46;;;;;;;13.43;8.68;;;;;;;;;;2070046;28;20060;-79
2021/05/28 05:20:48;;;;;;;11.45;8.30;;;;;;;;;;2070596;28;20048;-80
2021/05/28 05:21:52;;;;;;;11.40;7.88;;;;;;;;;;2062555;28;20166;-80
2021/05/28 05:22:54;;;;;;;10.75;7.50;;;;;;;;;;2062202;28;20427;-80
2021/05/28 05:23:55;;;;;;;9.73;7.50;;;;;;;;;;2063475;28;20077;-81
2021/05/28 05:24:57;;;;;;;10.35;7.80;;;;;;;;;;2071072;28;20038;-80
2021/05/28 05:25:58;;;;;;;13.07;7.78;;;;;;;;;;2070449;28;20053;-80
2021/05/28 05:27:00;;;;;;;11.57;8.40;;;;;;;;;;2070547;28;20072;-80
2021/05/28 05:28:02;;;;;;;12.02;7.78;;;;;;;;;;2070362;28;20471;-79
2021/05/28 05:29:04;;;;;;;9.50;6.70;;;;;;;;;;2063751;28;20043;-80
2021/05/28 05:30:06;;;;;;;10.25;6.95;;;;;;;;;;2070569;28;20072;-81
2021/05/28 05:31:07;;;;;;;10.30;7.78;;;;;;;;;;2062116;28;20412;-80
2021/05/28 05:32:10;;;;;;;11.10;8.15;;;;;;;;;;2055046;28;20038;-79
2021/05/28 05:33:11;;;;;;;13.63;8.80;;;;;;;;;;2062031;28;20791;-80
2021/05/28 05:34:13;;;;;;;12.45;9.20;;;;;;;;;;2061905;28;20046;-81
2021/05/28 05:35:15;;;;;;;13.98;9.07;;;;;;;;;;2070175;28;20070;-80
2021/05/28 05:36:16;;;;;;;13.45;9.10;;;;;;;;;;2053827;28;20045;-80
2021/05/28 05:37:18;;;;;;;16.25;10.00;;;;;;;;;;2061883;28;20049;-80
2021/05/28 05:38:19;;;;;;;15.73;9.63;;;;;;;;;;2064673;28;20049;-81
2021/05/28 05:39:24;;;;;;;16.42;9.57;;;;;;;;;;2070001;28;20077;-80
2021/05/28 05:40:26;;;;;;;11.70;8.18;;;;;;;;;;2069477;28;20053;-80
2021/05/28 05:41:28;;;;;;;17.08;10.02;;;;;;;;;;2070003;28;20052;-81
2021/05/28 05:42:29;;;;;;;14.70;8.25;;;;;;;;;;2069806;28;20499;-79
2021/05/28 05:43:31;;;;;;;14.13;8.85;;;;;;;;;;2070015;28;20523;-80
2021/05/28 05:44:32;;;;;;;15.25;9.60;;;;;;;;;;2069958;28;20585;-79
2021/05/28 05:45:34;;;;;;;15.27;8.82;;;;;;;;;;2068769;28;20045;-80
2021/05/28 05:46:35;;;;;;;13.95;9.38;;;;;;;;;;2061576;28;20054;-79
2021/05/28 05:47:37;;;;;;;18.10;9.68;;;;;;;;;;2069651;28;20070;-80
2021/05/28 05:48:38;;;;;;;12.98;8.50;;;;;;;;;;2070830;28;20104;-80
2021/05/28 05:49:42;;;;;;;13.52;8.73;;;;;;;;;;2070278;28;20054;-80
2021/05/28 05:50:43;;;;;;;12.90;9.07;;;;;;;;;;2069876;28;20050;-79
2021/05/28 05:51:45;;;;;;;14.35;9.48;;;;;;;;;;2069808;28;20121;-80
2021/05/28 05:52:47;;;;;;;15.30;8.98;;;;;;;;;;2070679;28;20045;-79
2021/05/28 05:53:48;;;;;;;12.80;9.25;;;;;;;;;;2055239;28;20035;-79
2021/05/28 05:54:50;;;;;;;15.23;9.85;;;;;;;;;;2054648;28;20073;-79
2021/05/28 05:55:51;;;;;;;15.43;9.05;;;;;;;;;;2054428;28;20046;-79
2021/05/28 05:56:53;;;;;;;14.25;9.85;;;;;;;;;;2063255;28;20042;-79
2021/05/28 05:57:55;;;;;;;14.75;9.00;;;;;;;;;;2062245;28;20039;-79
2021/05/28 05:58:56;;;;;;;17.25;9.15;;;;;;;;;;2062951;28;20046;-79
2021/05/28 05:59:58;;;;;;;16.08;9.27;;;;;;;;;;2061826;28;20042;-80
2021/05/28 06:00:59;;;;;;;12.80;9.02;;;;;;;;;;2061757;28;20053;-79
2021/05/28 06:02:02;;;;;;;14.35;9.20;;;;;;;;;;2062152;28;20512;-79
2021/05/28 06:03:03;;;;;;;14.38;8.70;;;;;;;;;;2062292;28;20066;-78
2021/05/28 06:04:05;;;;;;;13.95;9.02;;;;;;;;;;2070134;28;20769;-79
2021/05/28 06:05:07;;;;;;;12.38;7.93;;;;;;;;;;2069686;28;20049;-78
2021/05/28 06:06:09;;;;;;;15.50;8.88;;;;;;;;;;2070180;28;20041;-78
2021/05/28 06:07:10;;;;;;;13.00;8.32;;;;;;;;;;2062060;28;20050;-78